sensor_id;sensor_type;location;lat;lon;timestamp;P1;durP1;ratioP1;P2;durP2;ratioP2
25615;SDS011;13482;48.234;13.006;2023-04-25T00:00:16;0.93;;;0.60;;
25615;SDS011;13482;48.234;13.006;2023-04-25T00:02:43;1.00;;;0.63;;
25615;SDS011;13482;48.234;13.006;2023-04-25T00:05:10;1.60;;;0.70;;
25615;SDS011;13482;48.234;13.006;2023-04-25T00:07:38;1.10;;;0.60;;
25615;SDS011;13482;48.234;13.006;2023-04-25T00:10:06;1.33;;;0.70;;
25615;SDS011;13482;48.234;13.006;2023-04-25T00:12:34;1.50;;;0.70;;
25615;SDS011;13482;48.234;13.006;2023-04-25T00:15:02;0.70;;;0.50;;
25615;SDS011;13482;48.234;13.006;2023-04-25T00:17:30;1.80;;;0.70;;
25615;SDS011;13482;48.234;13.006;2023-04-25T00:19:57;1.38;;;0.70;;
25615;SDS011;13482;48.234;13.006;2023-04-25T00:22:24;0.75;;;0.50;;
25615;SDS011;13482;48.234;13.006;2023-04-25T00:24:51;1.27;;;0.60;;
25615;SDS011;13482;48.234;13.006;2023-04-25T00:27:19;0.68;;;0.40;;
25615;SDS011;13482;48.234;13.006;2023-04-25T00:29:46;1.20;;;0.60;;
25615;SDS011;13482;48.234;13.006;2023-04-25T00:32:13;0.93;;;0.60;;
25615;SDS011;13482;48.234;13.006;2023-04-25T00:34:40;0.70;;;0.50;;
25615;SDS011;13482;48.234;13.006;2023-04-25T00:37:07;0.75;;;0.60;;
25615;SDS011;13482;48.234;13.006;2023-04-25T00:39:34;1.27;;;0.55;;
25615;SDS011;13482;48.234;13.006;2023-04-25T00:42:02;0.77;;;0.57;;
25615;SDS011;13482;48.234;13.006;2023-04-25T00:44:30;0.70;;;0.50;;
25615;SDS011;13482;48.234;13.006;2023-04-25T00:47:01;1.00;;;0.57;;
25615;SDS011;13482;48.234;13.006;2023-04-25T00:49:30;0.63;;;0.45;;
25615;SDS011;13482;48.234;13.006;2023-04-25T00:51:57;1.15;;;0.70;;
25615;SDS011;13482;48.234;13.006;2023-04-25T00:54:24;0.55;;;0.45;;
25615;SDS011;13482;48.234;13.006;2023-04-25T00:56:51;0.90;;;0.50;;
25615;SDS011;13482;48.234;13.006;2023-04-25T00:59:19;1.00;;;0.57;;
25615;SDS011;13482;48.234;13.006;2023-04-25T01:01:47;0.98;;;0.57;;
25615;SDS011;13482;48.234;13.006;2023-04-25T01:04:14;1.13;;;0.60;;
25615;SDS011;13482;48.234;13.006;2023-04-25T01:06:41;1.05;;;0.60;;
25615;SDS011;13482;48.234;13.006;2023-04-25T01:09:09;1.67;;;0.50;;
25615;SDS011;13482;48.234;13.006;2023-04-25T01:11:36;1.40;;;0.50;;
25615;SDS011;13482;48.234;13.006;2023-04-25T01:14:03;1.35;;;0.60;;
25615;SDS011;13482;48.234;13.006;2023-04-25T01:16:31;0.60;;;0.52;;
25615;SDS011;13482;48.234;13.006;2023-04-25T01:18:59;0.93;;;0.60;;
25615;SDS011;13482;48.234;13.006;2023-04-25T01:21:26;0.85;;;0.52;;
25615;SDS011;13482;48.234;13.006;2023-04-25T01:23:56;1.85;;;0.50;;
25615;SDS011;13482;48.234;13.006;2023-04-25T01:26:23;0.73;;;0.50;;
25615;SDS011;13482;48.234;13.006;2023-04-25T01:28:51;0.63;;;0.43;;
25615;SDS011;13482;48.234;13.006;2023-04-25T01:31:19;1.27;;;0.70;;
25615;SDS011;13482;48.234;13.006;2023-04-25T01:33:47;1.10;;;0.55;;
25615;SDS011;13482;48.234;13.006;2023-04-25T01:36:14;0.85;;;0.50;;
25615;SDS011;13482;48.234;13.006;2023-04-25T01:38:42;1.67;;;0.70;;
25615;SDS011;13482;48.234;13.006;2023-04-25T01:41:10;1.08;;;0.65;;
25615;SDS011;13482;48.234;13.006;2023-04-25T01:43:37;1.20;;;0.50;;
25615;SDS011;13482;48.234;13.006;2023-04-25T01:46:04;1.08;;;0.63;;
25615;SDS011;13482;48.234;13.006;2023-04-25T01:48:32;1.02;;;0.60;;
25615;SDS011;13482;48.234;13.006;2023-04-25T01:50:59;0.85;;;0.60;;
25615;SDS011;13482;48.234;13.006;2023-04-25T01:53:26;1.98;;;0.60;;
25615;SDS011;13482;48.234;13.006;2023-04-25T01:55:53;0.90;;;0.60;;
25615;SDS011;13482;48.234;13.006;2023-04-25T01:58:20;1.70;;;0.70;;
25615;SDS011;13482;48.234;13.006;2023-04-25T02:00:48;0.88;;;0.65;;
25615;SDS011;13482;48.234;13.006;2023-04-25T02:03:15;0.88;;;0.50;;
25615;SDS011;13482;48.234;13.006;2023-04-25T02:05:42;1.00;;;0.60;;
25615;SDS011;13482;48.234;13.006;2023-04-25T02:08:09;0.70;;;0.50;;
25615;SDS011;13482;48.234;13.006;2023-04-25T02:10:36;0.98;;;0.60;;
25615;SDS011;13482;48.234;13.006;2023-04-25T02:13:04;1.00;;;0.65;;
25615;SDS011;13482;48.234;13.006;2023-04-25T02:15:31;0.80;;;0.57;;
25615;SDS011;13482;48.234;13.006;2023-04-25T02:17:59;1.40;;;0.57;;
25615;SDS011;13482;48.234;13.006;2023-04-25T02:20:29;1.00;;;0.50;;
25615;SDS011;13482;48.234;13.006;2023-04-25T02:22:57;0.38;;;0.38;;
25615;SDS011;13482;48.234;13.006;2023-04-25T02:25:25;1.38;;;0.60;;
25615;SDS011;13482;48.234;13.006;2023-04-25T02:27:52;2.60;;;0.68;;
25615;SDS011;13482;48.234;13.006;2023-04-25T02:30:20;1.35;;;0.70;;
25615;SDS011;13482;48.234;13.006;2023-04-25T02:32:47;1.63;;;0.70;;
25615;SDS011;13482;48.234;13.006;2023-04-25T02:35:14;1.70;;;0.70;;
25615;SDS011;13482;48.234;13.006;2023-04-25T02:37:41;0.93;;;0.50;;
25615;SDS011;13482;48.234;13.006;2023-04-25T02:40:09;1.20;;;0.68;;
25615;SDS011;13482;48.234;13.006;2023-04-25T02:42:36;0.85;;;0.60;;
25615;SDS011;13482;48.234;13.006;2023-04-25T02:45:03;0.77;;;0.60;;
25615;SDS011;13482;48.234;13.006;2023-04-25T02:47:31;0.75;;;0.50;;
25615;SDS011;13482;48.234;13.006;2023-04-25T02:49:58;1.05;;;0.60;;
25615;SDS011;13482;48.234;13.006;2023-04-25T02:52:25;0.90;;;0.50;;
25615;SDS011;13482;48.234;13.006;2023-04-25T02:54:52;1.25;;;0.60;;
25615;SDS011;13482;48.234;13.006;2023-04-25T02:57:20;0.70;;;0.50;;
25615;SDS011;13482;48.234;13.006;2023-04-25T02:59:47;1.23;;;0.60;;
25615;SDS011;13482;48.234;13.006;2023-04-25T03:02:14;1.23;;;0.50;;
25615;SDS011;13482;48.234;13.006;2023-04-25T03:04:41;1.23;;;0.70;;
25615;SDS011;13482;48.234;13.006;2023-04-25T03:07:09;1.23;;;0.60;;
25615;SDS011;13482;48.234;13.006;2023-04-25T03:09:37;0.70;;;0.50;;
25615;SDS011;13482;48.234;13.006;2023-04-25T03:12:04;1.10;;;0.50;;
25615;SDS011;13482;48.234;13.006;2023-04-25T03:14:32;1.20;;;0.50;;
25615;SDS011;13482;48.234;13.006;2023-04-25T03:17:00;1.00;;;0.60;;
25615;SDS011;13482;48.234;13.006;2023-04-25T03:19:27;0.47;;;0.40;;
25615;SDS011;13482;48.234;13.006;2023-04-25T03:21:55;1.42;;;0.70;;
25615;SDS011;13482;48.234;13.006;2023-04-25T03:24:22;0.82;;;0.50;;
25615;SDS011;13482;48.234;13.006;2023-04-25T03:26:49;0.82;;;0.65;;
25615;SDS011;13482;48.234;13.006;2023-04-25T03:29:16;2.92;;;0.70;;
25615;SDS011;13482;48.234;13.006;2023-04-25T03:31:43;0.90;;;0.60;;
25615;SDS011;13482;48.234;13.006;2023-04-25T03:34:10;0.82;;;0.60;;
25615;SDS011;13482;48.234;13.006;2023-04-25T03:36:37;1.42;;;0.77;;
25615;SDS011;13482;48.234;13.006;2023-04-25T03:39:07;1.05;;;0.63;;
25615;SDS011;13482;48.234;13.006;2023-04-25T03:41:34;0.95;;;0.73;;
25615;SDS011;13482;48.234;13.006;2023-04-25T03:44:01;1.13;;;0.63;;
25615;SDS011;13482;48.234;13.006;2023-04-25T03:46:28;1.35;;;0.90;;
25615;SDS011;13482;48.234;13.006;2023-04-25T03:48:55;1.00;;;0.65;;
25615;SDS011;13482;48.234;13.006;2023-04-25T03:51:22;1.23;;;0.70;;
25615;SDS011;13482;48.234;13.006;2023-04-25T03:53:49;1.52;;;0.70;;
25615;SDS011;13482;48.234;13.006;2023-04-25T03:56:17;0.75;;;0.60;;
25615;SDS011;13482;48.234;13.006;2023-04-25T03:58:44;1.88;;;0.55;;
25615;SDS011;13482;48.234;13.006;2023-04-25T04:01:11;0.93;;;0.60;;
25615;SDS011;13482;48.234;13.006;2023-04-25T04:03:38;1.90;;;0.80;;
25615;SDS011;13482;48.234;13.006;2023-04-25T04:06:06;0.98;;;0.65;;
25615;SDS011;13482;48.234;13.006;2023-04-25T04:08:34;2.05;;;0.60;;
25615;SDS011;13482;48.234;13.006;2023-04-25T04:11:02;0.90;;;0.50;;
25615;SDS011;13482;48.234;13.006;2023-04-25T04:13:29;1.00;;;0.60;;
25615;SDS011;13482;48.234;13.006;2023-04-25T04:15:56;0.82;;;0.55;;
25615;SDS011;13482;48.234;13.006;2023-04-25T04:18:24;1.42;;;0.60;;
25615;SDS011;13482;48.234;13.006;2023-04-25T04:20:51;1.05;;;0.57;;
25615;SDS011;13482;48.234;13.006;2023-04-25T04:23:19;1.27;;;0.70;;
25615;SDS011;13482;48.234;13.006;2023-04-25T04:25:46;1.70;;;0.90;;
25615;SDS011;13482;48.234;13.006;2023-04-25T04:28:14;1.08;;;0.60;;
25615;SDS011;13482;48.234;13.006;2023-04-25T04:30:42;1.40;;;0.70;;
25615;SDS011;13482;48.234;13.006;2023-04-25T04:33:12;0.88;;;0.70;;
25615;SDS011;13482;48.234;13.006;2023-04-25T04:35:41;1.10;;;0.70;;
25615;SDS011;13482;48.234;13.006;2023-04-25T04:38:09;1.27;;;0.77;;
25615;SDS011;13482;48.234;13.006;2023-04-25T04:40:38;2.13;;;1.10;;
25615;SDS011;13482;48.234;13.006;2023-04-25T04:43:05;1.55;;;1.15;;
25615;SDS011;13482;48.234;13.006;2023-04-25T04:45:32;10.90;;;7.50;;
25615;SDS011;13482;48.234;13.006;2023-04-25T04:47:59;3.45;;;2.15;;
25615;SDS011;13482;48.234;13.006;2023-04-25T04:50:26;2.58;;;1.40;;
25615;SDS011;13482;48.234;13.006;2023-04-25T04:52:54;2.25;;;1.20;;
25615;SDS011;13482;48.234;13.006;2023-04-25T04:55:21;1.77;;;1.00;;
25615;SDS011;13482;48.234;13.006;2023-04-25T04:57:48;1.83;;;1.10;;
25615;SDS011;13482;48.234;13.006;2023-04-25T05:00:16;1.42;;;0.82;;
25615;SDS011;13482;48.234;13.006;2023-04-25T05:02:44;1.55;;;0.90;;
25615;SDS011;13482;48.234;13.006;2023-04-25T05:05:11;1.92;;;0.98;;
25615;SDS011;13482;48.234;13.006;2023-04-25T05:07:38;1.27;;;0.88;;
25615;SDS011;13482;48.234;13.006;2023-04-25T05:10:06;1.98;;;1.10;;
25615;SDS011;13482;48.234;13.006;2023-04-25T05:12:34;1.33;;;0.90;;
25615;SDS011;13482;48.234;13.006;2023-04-25T05:15:02;1.30;;;0.80;;
25615;SDS011;13482;48.234;13.006;2023-04-25T05:17:30;2.25;;;1.30;;
25615;SDS011;13482;48.234;13.006;2023-04-25T05:19:57;1.45;;;1.00;;
25615;SDS011;13482;48.234;13.006;2023-04-25T05:22:24;1.70;;;1.10;;
25615;SDS011;13482;48.234;13.006;2023-04-25T05:24:51;1.65;;;0.90;;
25615;SDS011;13482;48.234;13.006;2023-04-25T05:27:21;1.30;;;0.80;;
25615;SDS011;13482;48.234;13.006;2023-04-25T05:29:48;1.17;;;0.75;;
25615;SDS011;13482;48.234;13.006;2023-04-25T05:32:15;1.48;;;0.80;;
25615;SDS011;13482;48.234;13.006;2023-04-25T05:34:42;1.42;;;0.90;;
25615;SDS011;13482;48.234;13.006;2023-04-25T05:37:10;1.05;;;0.85;;
25615;SDS011;13482;48.234;13.006;2023-04-25T05:39:37;1.25;;;0.80;;
25615;SDS011;13482;48.234;13.006;2023-04-25T05:42:04;1.33;;;0.90;;
25615;SDS011;13482;48.234;13.006;2023-04-25T05:44:31;1.60;;;1.02;;
25615;SDS011;13482;48.234;13.006;2023-04-25T05:46:58;1.80;;;1.05;;
25615;SDS011;13482;48.234;13.006;2023-04-25T05:49:25;2.30;;;0.90;;
25615;SDS011;13482;48.234;13.006;2023-04-25T05:51:52;1.55;;;1.00;;
25615;SDS011;13482;48.234;13.006;2023-04-25T05:54:19;1.40;;;1.10;;
25615;SDS011;13482;48.234;13.006;2023-04-25T05:56:46;1.52;;;1.00;;
25615;SDS011;13482;48.234;13.006;2023-04-25T05:59:14;1.95;;;1.10;;
25615;SDS011;13482;48.234;13.006;2023-04-25T06:01:41;1.42;;;0.93;;
25615;SDS011;13482;48.234;13.006;2023-04-25T06:04:08;2.30;;;1.02;;
25615;SDS011;13482;48.234;13.006;2023-04-25T06:06:36;1.92;;;1.00;;
25615;SDS011;13482;48.234;13.006;2023-04-25T06:09:03;2.28;;;1.33;;
25615;SDS011;13482;48.234;13.006;2023-04-25T06:11:30;2.20;;;1.50;;
25615;SDS011;13482;48.234;13.006;2023-04-25T06:13:57;2.83;;;2.00;;
25615;SDS011;13482;48.234;13.006;2023-04-25T06:16:24;2.63;;;1.50;;
25615;SDS011;13482;48.234;13.006;2023-04-25T06:18:52;2.70;;;1.55;;
25615;SDS011;13482;48.234;13.006;2023-04-25T06:21:19;1.83;;;1.25;;
25615;SDS011;13482;48.234;13.006;2023-04-25T06:23:46;3.08;;;1.60;;
25615;SDS011;13482;48.234;13.006;2023-04-25T06:26:14;2.20;;;1.20;;
25615;SDS011;13482;48.234;13.006;2023-04-25T06:28:41;1.95;;;1.10;;
25615;SDS011;13482;48.234;13.006;2023-04-25T06:31:09;2.35;;;1.38;;
25615;SDS011;13482;48.234;13.006;2023-04-25T06:33:36;2.40;;;1.30;;
25615;SDS011;13482;48.234;13.006;2023-04-25T06:36:03;2.47;;;1.30;;
25615;SDS011;13482;48.234;13.006;2023-04-25T06:38:30;1.40;;;0.93;;
25615;SDS011;13482;48.234;13.006;2023-04-25T06:40:58;2.00;;;1.08;;
25615;SDS011;13482;48.234;13.006;2023-04-25T06:43:25;1.60;;;1.08;;
25615;SDS011;13482;48.234;13.006;2023-04-25T06:45:52;1.67;;;0.95;;
25615;SDS011;13482;48.234;13.006;2023-04-25T06:48:19;1.25;;;0.93;;
25615;SDS011;13482;48.234;13.006;2023-04-25T06:50:46;3.25;;;1.10;;
25615;SDS011;13482;48.234;13.006;2023-04-25T06:53:13;2.42;;;1.05;;
25615;SDS011;13482;48.234;13.006;2023-04-25T06:55:41;1.73;;;0.98;;
25615;SDS011;13482;48.234;13.006;2023-04-25T06:58:08;1.95;;;1.00;;
25615;SDS011;13482;48.234;13.006;2023-04-25T07:00:35;1.75;;;1.10;;
25615;SDS011;13482;48.234;13.006;2023-04-25T07:03:02;1.38;;;0.85;;
25615;SDS011;13482;48.234;13.006;2023-04-25T07:05:29;2.58;;;1.05;;
25615;SDS011;13482;48.234;13.006;2023-04-25T07:07:57;1.98;;;0.90;;
25615;SDS011;13482;48.234;13.006;2023-04-25T07:10:24;2.80;;;0.90;;
25615;SDS011;13482;48.234;13.006;2023-04-25T07:12:51;2.10;;;1.08;;
25615;SDS011;13482;48.234;13.006;2023-04-25T07:15:18;2.05;;;0.93;;
25615;SDS011;13482;48.234;13.006;2023-04-25T07:17:45;1.73;;;0.88;;
25615;SDS011;13482;48.234;13.006;2023-04-25T07:20:13;1.88;;;0.90;;
25615;SDS011;13482;48.234;13.006;2023-04-25T07:22:40;1.15;;;0.68;;
25615;SDS011;13482;48.234;13.006;2023-04-25T07:25:07;1.55;;;0.93;;
25615;SDS011;13482;48.234;13.006;2023-04-25T07:27:35;2.90;;;0.90;;
25615;SDS011;13482;48.234;13.006;2023-04-25T07:30:02;1.33;;;0.80;;
25615;SDS011;13482;48.234;13.006;2023-04-25T07:32:30;1.35;;;0.90;;
25615;SDS011;13482;48.234;13.006;2023-04-25T07:34:57;1.55;;;0.73;;
25615;SDS011;13482;48.234;13.006;2023-04-25T07:37:24;2.50;;;1.20;;
25615;SDS011;13482;48.234;13.006;2023-04-25T07:39:52;2.25;;;1.27;;
25615;SDS011;13482;48.234;13.006;2023-04-25T07:42:19;4.78;;;2.90;;
25615;SDS011;13482;48.234;13.006;2023-04-25T07:44:47;5.18;;;3.15;;
25615;SDS011;13482;48.234;13.006;2023-04-25T07:47:14;5.03;;;3.30;;
25615;SDS011;13482;48.234;13.006;2023-04-25T07:49:41;2.90;;;1.80;;
25615;SDS011;13482;48.234;13.006;2023-04-25T07:52:09;2.03;;;1.30;;
25615;SDS011;13482;48.234;13.006;2023-04-25T07:54:36;1.80;;;1.17;;
25615;SDS011;13482;48.234;13.006;2023-04-25T07:57:03;1.70;;;1.05;;
25615;SDS011;13482;48.234;13.006;2023-04-25T07:59:32;2.17;;;1.00;;
25615;SDS011;13482;48.234;13.006;2023-04-25T08:02:00;2.55;;;1.00;;
25615;SDS011;13482;48.234;13.006;2023-04-25T08:04:27;2.25;;;1.00;;
25615;SDS011;13482;48.234;13.006;2023-04-25T08:06:55;1.52;;;0.90;;
25615;SDS011;13482;48.234;13.006;2023-04-25T08:09:22;1.80;;;0.80;;
25615;SDS011;13482;48.234;13.006;2023-04-25T08:11:49;2.22;;;0.90;;
25615;SDS011;13482;48.234;13.006;2023-04-25T08:14:16;2.50;;;1.15;;
25615;SDS011;13482;48.234;13.006;2023-04-25T08:16:43;2.95;;;1.38;;
25615;SDS011;13482;48.234;13.006;2023-04-25T08:19:11;2.20;;;1.00;;
25615;SDS011;13482;48.234;13.006;2023-04-25T08:21:38;2.20;;;1.08;;
25615;SDS011;13482;48.234;13.006;2023-04-25T08:24:05;2.55;;;1.35;;
25615;SDS011;13482;48.234;13.006;2023-04-25T08:26:32;1.90;;;1.27;;
25615;SDS011;13482;48.234;13.006;2023-04-25T08:29:00;1.48;;;0.90;;
25615;SDS011;13482;48.234;13.006;2023-04-25T08:31:27;2.22;;;1.30;;
25615;SDS011;13482;48.234;13.006;2023-04-25T08:33:55;1.90;;;1.08;;
25615;SDS011;13482;48.234;13.006;2023-04-25T08:36:22;2.38;;;1.60;;
25615;SDS011;13482;48.234;13.006;2023-04-25T08:38:56;3.15;;;1.42;;
25615;SDS011;13482;48.234;13.006;2023-04-25T08:41:25;2.25;;;1.10;;
25615;SDS011;13482;48.234;13.006;2023-04-25T08:43:53;1.95;;;1.00;;
25615;SDS011;13482;48.234;13.006;2023-04-25T08:46:22;2.58;;;1.30;;
25615;SDS011;13482;48.234;13.006;2023-04-25T08:48:50;2.25;;;1.20;;
25615;SDS011;13482;48.234;13.006;2023-04-25T08:51:23;3.67;;;1.50;;
25615;SDS011;13482;48.234;13.006;2023-04-25T08:53:54;4.57;;;1.70;;
25615;SDS011;13482;48.234;13.006;2023-04-25T08:56:30;2.47;;;1.30;;
25615;SDS011;13482;48.234;13.006;2023-04-25T08:59:01;3.83;;;1.38;;
25615;SDS011;13482;48.234;13.006;2023-04-25T09:01:28;3.53;;;1.20;;
25615;SDS011;13482;48.234;13.006;2023-04-25T09:03:56;2.60;;;0.90;;
25615;SDS011;13482;48.234;13.006;2023-04-25T09:06:24;2.35;;;0.98;;
25615;SDS011;13482;48.234;13.006;2023-04-25T09:08:52;1.70;;;1.00;;
25615;SDS011;13482;48.234;13.006;2023-04-25T09:11:20;3.22;;;0.98;;
25615;SDS011;13482;48.234;13.006;2023-04-25T09:13:48;1.90;;;1.02;;
25615;SDS011;13482;48.234;13.006;2023-04-25T09:16:16;1.67;;;0.80;;
25615;SDS011;13482;48.234;13.006;2023-04-25T09:18:45;1.40;;;0.80;;
25615;SDS011;13482;48.234;13.006;2023-04-25T09:21:14;3.08;;;1.08;;
25615;SDS011;13482;48.234;13.006;2023-04-25T09:23:46;1.13;;;0.77;;
25615;SDS011;13482;48.234;13.006;2023-04-25T09:26:15;1.55;;;0.70;;
25615;SDS011;13482;48.234;13.006;2023-04-25T09:28:45;1.55;;;0.75;;
25615;SDS011;13482;48.234;13.006;2023-04-25T09:31:23;3.33;;;0.90;;
25615;SDS011;13482;48.234;13.006;2023-04-25T09:33:58;1.58;;;0.70;;
25615;SDS011;13482;48.234;13.006;2023-04-25T09:36:30;2.97;;;0.80;;
25615;SDS011;13482;48.234;13.006;2023-04-25T09:38:58;1.30;;;0.80;;
25615;SDS011;13482;48.234;13.006;2023-04-25T09:41:27;0.63;;;0.45;;
25615;SDS011;13482;48.234;13.006;2023-04-25T09:43:56;1.10;;;0.50;;
25615;SDS011;13482;48.234;13.006;2023-04-25T09:46:33;1.27;;;0.60;;
25615;SDS011;13482;48.234;13.006;2023-04-25T09:49:07;1.33;;;0.85;;
25615;SDS011;13482;48.234;13.006;2023-04-25T09:51:34;1.27;;;0.70;;
25615;SDS011;13482;48.234;13.006;2023-04-25T09:54:02;1.00;;;0.65;;
25615;SDS011;13482;48.234;13.006;2023-04-25T09:56:30;1.45;;;0.80;;
25615;SDS011;13482;48.234;13.006;2023-04-25T09:59:03;1.23;;;0.65;;
25615;SDS011;13482;48.234;13.006;2023-04-25T10:01:33;1.58;;;0.80;;
25615;SDS011;13482;48.234;13.006;2023-04-25T10:04:01;1.75;;;0.70;;
25615;SDS011;13482;48.234;13.006;2023-04-25T10:06:31;1.30;;;0.75;;
25615;SDS011;13482;48.234;13.006;2023-04-25T10:09:00;1.30;;;0.60;;
25615;SDS011;13482;48.234;13.006;2023-04-25T10:11:30;1.30;;;0.80;;
25615;SDS011;13482;48.234;13.006;2023-04-25T10:13:59;1.13;;;0.70;;
25615;SDS011;13482;48.234;13.006;2023-04-25T10:16:27;1.83;;;0.70;;
25615;SDS011;13482;48.234;13.006;2023-04-25T10:18:55;1.20;;;0.80;;
25615;SDS011;13482;48.234;13.006;2023-04-25T10:21:23;1.20;;;0.73;;
25615;SDS011;13482;48.234;13.006;2023-04-25T10:23:54;2.28;;;0.60;;
25615;SDS011;13482;48.234;13.006;2023-04-25T10:26:21;1.17;;;0.70;;
25615;SDS011;13482;48.234;13.006;2023-04-25T10:29:00;1.85;;;0.68;;
25615;SDS011;13482;48.234;13.006;2023-04-25T10:31:29;1.98;;;0.80;;
25615;SDS011;13482;48.234;13.006;2023-04-25T10:33:58;1.25;;;0.60;;
25615;SDS011;13482;48.234;13.006;2023-04-25T10:36:27;0.77;;;0.50;;
25615;SDS011;13482;48.234;13.006;2023-04-25T10:39:02;1.55;;;0.55;;
25615;SDS011;13482;48.234;13.006;2023-04-25T10:41:48;1.63;;;0.70;;
25615;SDS011;13482;48.234;13.006;2023-04-25T10:44:22;1.00;;;0.60;;
25615;SDS011;13482;48.234;13.006;2023-04-25T10:46:52;0.60;;;0.47;;
25615;SDS011;13482;48.234;13.006;2023-04-25T10:49:34;1.17;;;0.60;;
25615;SDS011;13482;48.234;13.006;2023-04-25T10:54:54;1.27;;;0.60;;
25615;SDS011;13482;48.234;13.006;2023-04-25T10:57:26;1.33;;;0.60;;
25615;SDS011;13482;48.234;13.006;2023-04-25T11:00:20;1.38;;;0.60;;
25615;SDS011;13482;48.234;13.006;2023-04-25T11:03:15;1.05;;;0.60;;
25615;SDS011;13482;48.234;13.006;2023-04-25T11:05:43;1.75;;;0.80;;
25615;SDS011;13482;48.234;13.006;2023-04-25T11:08:37;1.42;;;0.55;;
25615;SDS011;13482;48.234;13.006;2023-04-25T11:11:17;0.70;;;0.47;;
25615;SDS011;13482;48.234;13.006;2023-04-25T11:13:48;1.60;;;0.60;;
25615;SDS011;13482;48.234;13.006;2023-04-25T11:16:17;3.03;;;0.68;;
25615;SDS011;13482;48.234;13.006;2023-04-25T11:18:53;1.55;;;0.70;;
25615;SDS011;13482;48.234;13.006;2023-04-25T11:21:24;2.28;;;0.75;;
25615;SDS011;13482;48.234;13.006;2023-04-25T11:23:55;2.45;;;0.60;;
25615;SDS011;13482;48.234;13.006;2023-04-25T11:26:24;0.63;;;0.40;;
25615;SDS011;13482;48.234;13.006;2023-04-25T11:28:56;1.75;;;0.40;;
25615;SDS011;13482;48.234;13.006;2023-04-25T11:31:28;1.63;;;0.60;;
25615;SDS011;13482;48.234;13.006;2023-04-25T11:33:56;1.27;;;0.50;;
25615;SDS011;13482;48.234;13.006;2023-04-25T11:36:24;0.63;;;0.43;;
25615;SDS011;13482;48.234;13.006;2023-04-25T11:38:52;1.27;;;0.77;;
25615;SDS011;13482;48.234;13.006;2023-04-25T11:41:20;1.70;;;0.70;;
25615;SDS011;13482;48.234;13.006;2023-04-25T11:43:48;1.58;;;0.50;;
25615;SDS011;13482;48.234;13.006;2023-04-25T11:46:18;0.75;;;0.45;;
25615;SDS011;13482;48.234;13.006;2023-04-25T11:48:46;1.00;;;0.52;;
25615;SDS011;13482;48.234;13.006;2023-04-25T11:51:14;0.50;;;0.40;;
25615;SDS011;13482;48.234;13.006;2023-04-25T11:53:42;0.50;;;0.30;;
25615;SDS011;13482;48.234;13.006;2023-04-25T11:56:11;0.65;;;0.40;;
25615;SDS011;13482;48.234;13.006;2023-04-25T12:01:31;0.90;;;0.40;;
25615;SDS011;13482;48.234;13.006;2023-04-25T12:04:18;0.30;;;0.28;;
25615;SDS011;13482;48.234;13.006;2023-04-25T12:06:48;0.50;;;0.40;;
25615;SDS011;13482;48.234;13.006;2023-04-25T12:09:21;0.70;;;0.40;;
25615;SDS011;13482;48.234;13.006;2023-04-25T12:11:57;1.05;;;0.38;;
25615;SDS011;13482;48.234;13.006;2023-04-25T12:14:30;0.82;;;0.40;;
25615;SDS011;13482;48.234;13.006;2023-04-25T12:17:01;0.57;;;0.50;;
25615;SDS011;13482;48.234;13.006;2023-04-25T12:19:34;1.17;;;0.40;;
25615;SDS011;13482;48.234;13.006;2023-04-25T12:22:03;0.95;;;0.40;;
25615;SDS011;13482;48.234;13.006;2023-04-25T12:24:46;0.73;;;0.40;;
25615;SDS011;13482;48.234;13.006;2023-04-25T12:27:14;0.60;;;0.32;;
25615;SDS011;13482;48.234;13.006;2023-04-25T12:29:49;0.63;;;0.45;;
25615;SDS011;13482;48.234;13.006;2023-04-25T12:32:19;1.33;;;0.57;;
25615;SDS011;13482;48.234;13.006;2023-04-25T12:34:46;0.60;;;0.47;;
25615;SDS011;13482;48.234;13.006;2023-04-25T12:37:13;1.30;;;0.70;;
25615;SDS011;13482;48.234;13.006;2023-04-25T12:39:41;0.50;;;0.38;;
25615;SDS011;13482;48.234;13.006;2023-04-25T12:42:08;0.50;;;0.45;;
25615;SDS011;13482;48.234;13.006;2023-04-25T12:44:38;0.80;;;0.50;;
25615;SDS011;13482;48.234;13.006;2023-04-25T12:47:06;0.88;;;0.50;;
25615;SDS011;13482;48.234;13.006;2023-04-25T12:49:34;2.08;;;0.80;;
25615;SDS011;13482;48.234;13.006;2023-04-25T12:52:01;0.85;;;0.57;;
25615;SDS011;13482;48.234;13.006;2023-04-25T12:54:28;0.63;;;0.47;;
25615;SDS011;13482;48.234;13.006;2023-04-25T12:56:56;1.13;;;0.60;;
25615;SDS011;13482;48.234;13.006;2023-04-25T12:59:23;1.17;;;0.60;;
25615;SDS011;13482;48.234;13.006;2023-04-25T13:01:50;1.17;;;0.60;;
25615;SDS011;13482;48.234;13.006;2023-04-25T13:04:18;1.35;;;0.90;;
25615;SDS011;13482;48.234;13.006;2023-04-25T13:06:47;2.10;;;1.30;;
25615;SDS011;13482;48.234;13.006;2023-04-25T13:09:14;1.52;;;0.90;;
25615;SDS011;13482;48.234;13.006;2023-04-25T13:11:41;2.35;;;0.80;;
25615;SDS011;13482;48.234;13.006;2023-04-25T13:14:09;1.60;;;0.60;;
25615;SDS011;13482;48.234;13.006;2023-04-25T13:16:36;0.28;;;0.22;;
25615;SDS011;13482;48.234;13.006;2023-04-25T13:19:03;0.55;;;0.20;;
25615;SDS011;13482;48.234;13.006;2023-04-25T13:21:31;0.98;;;0.30;;
25615;SDS011;13482;48.234;13.006;2023-04-25T13:23:58;1.00;;;0.40;;
25615;SDS011;13482;48.234;13.006;2023-04-25T13:26:26;0.70;;;0.45;;
25615;SDS011;13482;48.234;13.006;2023-04-25T13:28:53;0.73;;;0.40;;
25615;SDS011;13482;48.234;13.006;2023-04-25T13:31:20;0.43;;;0.40;;
25615;SDS011;13482;48.234;13.006;2023-04-25T13:33:47;0.63;;;0.50;;
25615;SDS011;13482;48.234;13.006;2023-04-25T13:36:15;0.80;;;0.30;;
25615;SDS011;13482;48.234;13.006;2023-04-25T13:38:42;1.08;;;0.40;;
25615;SDS011;13482;48.234;13.006;2023-04-25T13:41:11;0.63;;;0.50;;
25615;SDS011;13482;48.234;13.006;2023-04-25T13:43:44;1.30;;;0.85;;
25615;SDS011;13482;48.234;13.006;2023-04-25T13:46:14;1.38;;;1.00;;
25615;SDS011;13482;48.234;13.006;2023-04-25T13:49:02;1.95;;;1.27;;
25615;SDS011;13482;48.234;13.006;2023-04-25T13:51:38;1.80;;;1.20;;
25615;SDS011;13482;48.234;13.006;2023-04-25T13:54:05;1.77;;;1.20;;
25615;SDS011;13482;48.234;13.006;2023-04-25T13:56:32;2.05;;;1.20;;
25615;SDS011;13482;48.234;13.006;2023-04-25T13:58:59;2.30;;;1.35;;
25615;SDS011;13482;48.234;13.006;2023-04-25T14:01:27;1.35;;;1.00;;
25615;SDS011;13482;48.234;13.006;2023-04-25T14:03:54;1.10;;;0.80;;
25615;SDS011;13482;48.234;13.006;2023-04-25T14:06:21;1.42;;;0.90;;
25615;SDS011;13482;48.234;13.006;2023-04-25T14:08:52;1.60;;;0.85;;
25615;SDS011;13482;48.234;13.006;2023-04-25T14:11:20;1.75;;;1.10;;
25615;SDS011;13482;48.234;13.006;2023-04-25T14:13:47;2.20;;;0.82;;
25615;SDS011;13482;48.234;13.006;2023-04-25T14:16:16;1.48;;;0.82;;
25615;SDS011;13482;48.234;13.006;2023-04-25T14:18:43;4.88;;;3.22;;
25615;SDS011;13482;48.234;13.006;2023-04-25T14:21:10;3.63;;;2.35;;
25615;SDS011;13482;48.234;13.006;2023-04-25T14:23:37;2.67;;;1.88;;
25615;SDS011;13482;48.234;13.006;2023-04-25T14:26:05;3.85;;;2.97;;
25615;SDS011;13482;48.234;13.006;2023-04-25T14:28:32;4.47;;;3.97;;
25615;SDS011;13482;48.234;13.006;2023-04-25T14:31:00;3.45;;;2.60;;
25615;SDS011;13482;48.234;13.006;2023-04-25T14:33:27;2.60;;;2.10;;
25615;SDS011;13482;48.234;13.006;2023-04-25T14:35:54;3.05;;;2.58;;
25615;SDS011;13482;48.234;13.006;2023-04-25T14:38:22;4.68;;;3.92;;
25615;SDS011;13482;48.234;13.006;2023-04-25T14:40:51;8.18;;;7.35;;
25615;SDS011;13482;48.234;13.006;2023-04-25T14:43:20;9.98;;;8.93;;
25615;SDS011;13482;48.234;13.006;2023-04-25T14:45:47;6.95;;;6.25;;